sensor_id;sensor_type;location;lat;lon;timestamp;temperature;humidity
65374;SHT31;52070;53.760;9.678;2022-08-19T00:01:35;19.15;85.20
65374;SHT31;52070;53.760;9.678;2022-08-19T00:04:07;19.11;85.47
65374;SHT31;52070;53.760;9.678;2022-08-19T00:06:37;19.11;85.49
65374;SHT31;52070;53.760;9.678;2022-08-19T00:09:06;19.15;85.49
65374;SHT31;52070;53.760;9.678;2022-08-19T00:11:35;19.12;85.54
65374;SHT31;52070;53.760;9.678;2022-08-19T00:14:04;19.11;85.62
65374;SHT31;52070;53.760;9.678;2022-08-19T00:16:31;19.11;85.73
65374;SHT31;52070;53.760;9.678;2022-08-19T00:18:58;19.11;85.79
65374;SHT31;52070;53.760;9.678;2022-08-19T00:21:26;19.10;85.87
65374;SHT31;52070;53.760;9.678;2022-08-19T00:23:54;19.08;85.92
65374;SHT31;52070;53.760;9.678;2022-08-19T00:26:23;19.07;86.13
65374;SHT31;52070;53.760;9.678;2022-08-19T00:28:52;19.01;86.14
65374;SHT31;52070;53.760;9.678;2022-08-19T00:31:19;18.98;86.24
65374;SHT31;52070;53.760;9.678;2022-08-19T00:33:46;18.96;86.24
65374;SHT31;52070;53.760;9.678;2022-08-19T00:36:13;18.93;86.41
65374;SHT31;52070;53.760;9.678;2022-08-19T00:38:40;18.97;86.55
65374;SHT31;52070;53.760;9.678;2022-08-19T00:41:08;18.97;86.48
65374;SHT31;52070;53.760;9.678;2022-08-19T00:43:36;19.00;86.50
65374;SHT31;52070;53.760;9.678;2022-08-19T00:46:05;18.96;86.68
65374;SHT31;52070;53.760;9.678;2022-08-19T00:48:33;18.94;86.85
65374;SHT31;52070;53.760;9.678;2022-08-19T00:51:03;18.94;86.86
65374;SHT31;52070;53.760;9.678;2022-08-19T00:53:31;18.96;87.00
65374;SHT31;52070;53.760;9.678;2022-08-19T00:56:01;18.88;87.09
65374;SHT31;52070;53.760;9.678;2022-08-19T00:58:32;18.87;87.24
65374;SHT31;52070;53.760;9.678;2022-08-19T01:01:00;18.83;87.30
65374;SHT31;52070;53.760;9.678;2022-08-19T01:03:28;18.80;87.53
65374;SHT31;52070;53.760;9.678;2022-08-19T01:05:55;18.80;87.60
65374;SHT31;52070;53.760;9.678;2022-08-19T01:08:23;18.73;87.75
65374;SHT31;52070;53.760;9.678;2022-08-19T01:10:53;18.71;87.82
65374;SHT31;52070;53.760;9.678;2022-08-19T01:13:23;18.66;88.02
65374;SHT31;52070;53.760;9.678;2022-08-19T01:15:55;18.64;88.26
65374;SHT31;52070;53.760;9.678;2022-08-19T01:18:23;18.61;88.35
65374;SHT31;52070;53.760;9.678;2022-08-19T01:20:54;18.66;88.24
65374;SHT31;52070;53.760;9.678;2022-08-19T01:23:24;18.68;88.16
65374;SHT31;52070;53.760;9.678;2022-08-19T01:26:10;18.63;88.31
65374;SHT31;52070;53.760;9.678;2022-08-19T01:28:37;18.59;88.42
65374;SHT31;52070;53.760;9.678;2022-08-19T01:31:06;18.63;88.47
65374;SHT31;52070;53.760;9.678;2022-08-19T01:33:34;18.63;88.37
65374;SHT31;52070;53.760;9.678;2022-08-19T01:36:06;18.64;88.25
65374;SHT31;52070;53.760;9.678;2022-08-19T01:38:37;18.61;88.23
65374;SHT31;52070;53.760;9.678;2022-08-19T01:41:04;18.59;88.32
65374;SHT31;52070;53.760;9.678;2022-08-19T01:43:31;18.59;88.53
65374;SHT31;52070;53.760;9.678;2022-08-19T01:45:58;18.56;88.57
65374;SHT31;52070;53.760;9.678;2022-08-19T01:48:26;18.57;88.48
65374;SHT31;52070;53.760;9.678;2022-08-19T01:50:55;18.57;88.42
65374;SHT31;52070;53.760;9.678;2022-08-19T01:53:22;18.61;88.28
65374;SHT31;52070;53.760;9.678;2022-08-19T01:55:51;18.55;88.34
65374;SHT31;52070;53.760;9.678;2022-08-19T01:58:21;18.57;88.24
65374;SHT31;52070;53.760;9.678;2022-08-19T02:00:49;18.57;88.21
65374;SHT31;52070;53.760;9.678;2022-08-19T02:03:17;18.57;88.25
65374;SHT31;52070;53.760;9.678;2022-08-19T02:05:44;18.56;88.24
65374;SHT31;52070;53.760;9.678;2022-08-19T02:08:11;18.52;88.30
65374;SHT31;52070;53.760;9.678;2022-08-19T02:10:40;18.46;88.44
65374;SHT31;52070;53.760;9.678;2022-08-19T02:13:09;18.43;88.63
65374;SHT31;52070;53.760;9.678;2022-08-19T02:15:37;18.45;88.69
65374;SHT31;52070;53.760;9.678;2022-08-19T02:18:05;18.42;88.71
65374;SHT31;52070;53.760;9.678;2022-08-19T02:20:33;18.42;88.81
65374;SHT31;52070;53.760;9.678;2022-08-19T02:23:01;18.40;88.81
65374;SHT31;52070;53.760;9.678;2022-08-19T02:25:28;18.40;88.89
65374;SHT31;52070;53.760;9.678;2022-08-19T02:27:55;18.40;88.85
65374;SHT31;52070;53.760;9.678;2022-08-19T02:30:24;18.45;88.78
65374;SHT31;52070;53.760;9.678;2022-08-19T02:32:51;18.46;88.74
65374;SHT31;52070;53.760;9.678;2022-08-19T02:35:19;18.43;88.75
65374;SHT31;52070;53.760;9.678;2022-08-19T02:37:46;18.40;88.78
65374;SHT31;52070;53.760;9.678;2022-08-19T02:40:31;18.46;88.82
65374;SHT31;52070;53.760;9.678;2022-08-19T02:43:00;18.46;88.65
65374;SHT31;52070;53.760;9.678;2022-08-19T02:45:31;18.45;88.60
65374;SHT31;52070;53.760;9.678;2022-08-19T02:47:59;18.49;88.69
65374;SHT31;52070;53.760;9.678;2022-08-19T02:50:26;18.47;88.66
65374;SHT31;52070;53.760;9.678;2022-08-19T02:52:52;18.46;88.54
65374;SHT31;52070;53.760;9.678;2022-08-19T02:55:20;18.45;88.66
65374;SHT31;52070;53.760;9.678;2022-08-19T02:57:47;18.39;88.75
65374;SHT31;52070;53.760;9.678;2022-08-19T03:00:15;18.39;88.84
65374;SHT31;52070;53.760;9.678;2022-08-19T03:02:43;18.37;88.95
65374;SHT31;52070;53.760;9.678;2022-08-19T03:05:12;18.43;88.90
65374;SHT31;52070;53.760;9.678;2022-08-19T03:07:39;18.45;88.85
65374;SHT31;52070;53.760;9.678;2022-08-19T03:10:06;18.40;88.82
65374;SHT31;52070;53.760;9.678;2022-08-19T03:12:35;18.40;88.98
65374;SHT31;52070;53.760;9.678;2022-08-19T03:15:03;18.42;88.84
65374;SHT31;52070;53.760;9.678;2022-08-19T03:17:31;18.42;88.94
65374;SHT31;52070;53.760;9.678;2022-08-19T03:20:00;18.42;88.92
65374;SHT31;52070;53.760;9.678;2022-08-19T03:22:27;18.43;89.01
65374;SHT31;52070;53.760;9.678;2022-08-19T03:24:54;18.36;89.04
65374;SHT31;52070;53.760;9.678;2022-08-19T03:27:21;18.36;89.17
65374;SHT31;52070;53.760;9.678;2022-08-19T03:29:48;18.35;89.16
65374;SHT31;52070;53.760;9.678;2022-08-19T03:32:15;18.39;89.30
65374;SHT31;52070;53.760;9.678;2022-08-19T03:34:42;18.39;89.33
65374;SHT31;52070;53.760;9.678;2022-08-19T03:37:11;18.39;89.24
65374;SHT31;52070;53.760;9.678;2022-08-19T03:39:40;18.45;89.20
65374;SHT31;52070;53.760;9.678;2022-08-19T03:42:08;18.42;89.10
65374;SHT31;52070;53.760;9.678;2022-08-19T03:44:35;18.43;89.26
65374;SHT31;52070;53.760;9.678;2022-08-19T03:47:04;18.42;89.26
65374;SHT31;52070;53.760;9.678;2022-08-19T03:49:32;18.42;89.31
65374;SHT31;52070;53.760;9.678;2022-08-19T03:52:00;18.42;89.44
65374;SHT31;52070;53.760;9.678;2022-08-19T03:54:29;18.43;89.55
65374;SHT31;52070;53.760;9.678;2022-08-19T03:56:57;18.42;89.41
65374;SHT31;52070;53.760;9.678;2022-08-19T03:59:26;18.42;89.39
65374;SHT31;52070;53.760;9.678;2022-08-19T04:01:54;18.40;89.45
65374;SHT31;52070;53.760;9.678;2022-08-19T04:04:21;18.39;89.49
65374;SHT31;52070;53.760;9.678;2022-08-19T04:06:49;18.35;89.57
65374;SHT31;52070;53.760;9.678;2022-08-19T04:09:17;18.37;89.63
65374;SHT31;52070;53.760;9.678;2022-08-19T04:11:48;18.40;89.61
65374;SHT31;52070;53.760;9.678;2022-08-19T04:14:18;18.39;89.63
65374;SHT31;52070;53.760;9.678;2022-08-19T04:16:46;18.43;89.51
65374;SHT31;52070;53.760;9.678;2022-08-19T04:19:14;18.43;89.41
65374;SHT31;52070;53.760;9.678;2022-08-19T04:21:43;18.43;89.42
65374;SHT31;52070;53.760;9.678;2022-08-19T04:24:10;18.43;89.50
65374;SHT31;52070;53.760;9.678;2022-08-19T04:26:38;18.46;89.43
65374;SHT31;52070;53.760;9.678;2022-08-19T04:29:09;18.46;89.33
65374;SHT31;52070;53.760;9.678;2022-08-19T04:31:36;18.47;89.24
65374;SHT31;52070;53.760;9.678;2022-08-19T04:34:07;18.47;89.25
65374;SHT31;52070;53.760;9.678;2022-08-19T04:36:36;18.47;89.23
65374;SHT31;52070;53.760;9.678;2022-08-19T04:39:07;18.47;89.14
65374;SHT31;52070;53.760;9.678;2022-08-19T04:41:34;18.53;89.06
65374;SHT31;52070;53.760;9.678;2022-08-19T04:44:20;18.50;88.97
65374;SHT31;52070;53.760;9.678;2022-08-19T04:46:48;18.47;89.02
65374;SHT31;52070;53.760;9.678;2022-08-19T04:49:16;18.52;89.06
65374;SHT31;52070;53.760;9.678;2022-08-19T04:51:45;18.52;89.08
65374;SHT31;52070;53.760;9.678;2022-08-19T04:54:14;18.52;89.03
65374;SHT31;52070;53.760;9.678;2022-08-19T04:56:41;18.53;88.92
65374;SHT31;52070;53.760;9.678;2022-08-19T04:59:09;18.52;89.01
65374;SHT31;52070;53.760;9.678;2022-08-19T05:01:37;18.56;89.01
65374;SHT31;52070;53.760;9.678;2022-08-19T05:04:06;18.56;89.00
65374;SHT31;52070;53.760;9.678;2022-08-19T05:06:34;18.59;89.05
65374;SHT31;52070;53.760;9.678;2022-08-19T05:09:03;18.63;89.01
65374;SHT31;52070;53.760;9.678;2022-08-19T05:11:32;18.64;88.91
65374;SHT31;52070;53.760;9.678;2022-08-19T05:13:59;18.67;88.88
65374;SHT31;52070;53.760;9.678;2022-08-19T05:16:27;18.70;88.87
65374;SHT31;52070;53.760;9.678;2022-08-19T05:18:56;18.71;88.87
65374;SHT31;52070;53.760;9.678;2022-08-19T05:21:41;18.76;88.77
65374;SHT31;52070;53.760;9.678;2022-08-19T05:24:26;18.80;88.70
65374;SHT31;52070;53.760;9.678;2022-08-19T05:26:54;18.80;88.49
65374;SHT31;52070;53.760;9.678;2022-08-19T05:29:26;18.83;88.47
65374;SHT31;52070;53.760;9.678;2022-08-19T05:31:54;18.83;88.36
65374;SHT31;52070;53.760;9.678;2022-08-19T05:34:24;18.84;88.26
65374;SHT31;52070;53.760;9.678;2022-08-19T05:36:52;18.88;88.12
65374;SHT31;52070;53.760;9.678;2022-08-19T05:39:22;18.91;87.47
65374;SHT31;52070;53.760;9.678;2022-08-19T05:41:51;18.88;87.40
65374;SHT31;52070;53.760;9.678;2022-08-19T05:44:18;18.91;87.59
65374;SHT31;52070;53.760;9.678;2022-08-19T05:46:47;18.91;87.59
65374;SHT31;52070;53.760;9.678;2022-08-19T05:49:15;18.90;87.43
65374;SHT31;52070;53.760;9.678;2022-08-19T05:51:43;18.93;87.44
65374;SHT31;52070;53.760;9.678;2022-08-19T05:54:11;18.91;87.33
65374;SHT31;52070;53.760;9.678;2022-08-19T05:56:40;18.90;87.31
65374;SHT31;52070;53.760;9.678;2022-08-19T05:59:08;18.96;87.42
65374;SHT31;52070;53.760;9.678;2022-08-19T06:01:37;18.96;87.19
65374;SHT31;52070;53.760;9.678;2022-08-19T06:04:05;18.98;87.22
65374;SHT31;52070;53.760;9.678;2022-08-19T06:06:32;19.00;87.23
65374;SHT31;52070;53.760;9.678;2022-08-19T06:09:02;19.01;87.06
65374;SHT31;52070;53.760;9.678;2022-08-19T06:11:34;19.01;87.41
65374;SHT31;52070;53.760;9.678;2022-08-19T06:14:04;18.98;87.46
65374;SHT31;52070;53.760;9.678;2022-08-19T06:16:34;19.04;87.41
65374;SHT31;52070;53.760;9.678;2022-08-19T06:19:04;19.06;87.17
65374;SHT31;52070;53.760;9.678;2022-08-19T06:21:33;19.11;87.32
65374;SHT31;52070;53.760;9.678;2022-08-19T06:24:05;19.17;87.22
65374;SHT31;52070;53.760;9.678;2022-08-19T06:26:33;19.21;86.74
65374;SHT31;52070;53.760;9.678;2022-08-19T06:29:01;19.21;86.76
65374;SHT31;52070;53.760;9.678;2022-08-19T06:31:29;19.20;86.75
65374;SHT31;52070;53.760;9.678;2022-08-19T06:33:59;19.17;86.41
65374;SHT31;52070;53.760;9.678;2022-08-19T06:36:29;19.12;86.68
65374;SHT31;52070;53.760;9.678;2022-08-19T06:39:00;19.10;86.67
65374;SHT31;52070;53.760;9.678;2022-08-19T06:41:29;19.03;86.83
65374;SHT31;52070;53.760;9.678;2022-08-19T06:43:57;19.03;86.99
65374;SHT31;52070;53.760;9.678;2022-08-19T06:46:24;18.97;87.23
65374;SHT31;52070;53.760;9.678;2022-08-19T06:48:52;18.93;87.43
65374;SHT31;52070;53.760;9.678;2022-08-19T06:51:21;19.04;87.42
65374;SHT31;52070;53.760;9.678;2022-08-19T06:53:51;19.04;87.33
65374;SHT31;52070;53.760;9.678;2022-08-19T06:56:19;19.07;87.24
65374;SHT31;52070;53.760;9.678;2022-08-19T06:58:48;19.06;87.35
65374;SHT31;52070;53.760;9.678;2022-08-19T07:01:16;19.14;87.19
65374;SHT31;52070;53.760;9.678;2022-08-19T07:03:43;19.15;87.27
65374;SHT31;52070;53.760;9.678;2022-08-19T07:06:14;19.15;87.19
65374;SHT31;52070;53.760;9.678;2022-08-19T07:08:43;19.18;87.25
65374;SHT31;52070;53.760;9.678;2022-08-19T07:11:12;19.18;87.10
65374;SHT31;52070;53.760;9.678;2022-08-19T07:13:40;19.15;87.07
65374;SHT31;52070;53.760;9.678;2022-08-19T07:16:13;19.17;87.02
65374;SHT31;52070;53.760;9.678;2022-08-19T07:18:40;19.20;87.13
65374;SHT31;52070;53.760;9.678;2022-08-19T07:21:10;19.22;86.92
65374;SHT31;52070;53.760;9.678;2022-08-19T07:23:37;19.22;86.76
65374;SHT31;52070;53.760;9.678;2022-08-19T07:26:06;19.22;87.02
65374;SHT31;52070;53.760;9.678;2022-08-19T07:28:33;19.18;86.66
65374;SHT31;52070;53.760;9.678;2022-08-19T07:31:00;19.22;86.75
65374;SHT31;52070;53.760;9.678;2022-08-19T07:33:30;19.22;86.79
65374;SHT31;52070;53.760;9.678;2022-08-19T07:35:58;19.25;86.75
65374;SHT31;52070;53.760;9.678;2022-08-19T07:38:25;19.25;86.86
65374;SHT31;52070;53.760;9.678;2022-08-19T07:40:52;19.28;86.81
65374;SHT31;52070;53.760;9.678;2022-08-19T07:43:19;19.22;86.81
65374;SHT31;52070;53.760;9.678;2022-08-19T07:45:48;19.22;86.90
65374;SHT31;52070;53.760;9.678;2022-08-19T07:48:15;19.24;86.87
65374;SHT31;52070;53.760;9.678;2022-08-19T07:50:43;19.25;86.77
65374;SHT31;52070;53.760;9.678;2022-08-19T07:53:11;19.24;86.63
65374;SHT31;52070;53.760;9.678;2022-08-19T07:55:38;19.24;86.94
65374;SHT31;52070;53.760;9.678;2022-08-19T07:58:05;19.35;86.72
65374;SHT31;52070;53.760;9.678;2022-08-19T08:00:32;19.32;86.74
65374;SHT31;52070;53.760;9.678;2022-08-19T08:03:01;19.36;86.66
65374;SHT31;52070;53.760;9.678;2022-08-19T08:05:27;19.38;86.70
65374;SHT31;52070;53.760;9.678;2022-08-19T08:08:13;19.35;86.63
65374;SHT31;52070;53.760;9.678;2022-08-19T08:10:58;19.36;86.79
65374;SHT31;52070;53.760;9.678;2022-08-19T08:13:26;19.41;86.49
65374;SHT31;52070;53.760;9.678;2022-08-19T08:15:54;19.44;86.57
65374;SHT31;52070;53.760;9.678;2022-08-19T08:18:21;19.50;86.72
65374;SHT31;52070;53.760;9.678;2022-08-19T08:20:47;19.54;86.57
65374;SHT31;52070;53.760;9.678;2022-08-19T08:23:16;19.55;86.29
65374;SHT31;52070;53.760;9.678;2022-08-19T08:25:52;19.52;85.90
65374;SHT31;52070;53.760;9.678;2022-08-19T08:28:19;19.48;86.00
65374;SHT31;52070;53.760;9.678;2022-08-19T08:30:47;19.39;86.16
65374;SHT31;52070;53.760;9.678;2022-08-19T08:33:17;19.41;86.37
65374;SHT31;52070;53.760;9.678;2022-08-19T08:35:44;19.38;86.56
65374;SHT31;52070;53.760;9.678;2022-08-19T08:38:13;19.31;86.58
65374;SHT31;52070;53.760;9.678;2022-08-19T08:40:45;19.34;86.84
65374;SHT31;52070;53.760;9.678;2022-08-19T08:43:22;19.32;86.98
65374;SHT31;52070;53.760;9.678;2022-08-19T08:45:55;19.31;87.06
65374;SHT31;52070;53.760;9.678;2022-08-19T08:48:25;19.31;87.17
65374;SHT31;52070;53.760;9.678;2022-08-19T08:50:57;19.22;87.32
65374;SHT31;52070;53.760;9.678;2022-08-19T08:53:26;19.21;87.47
65374;SHT31;52070;53.760;9.678;2022-08-19T08:55:54;19.25;87.55
65374;SHT31;52070;53.760;9.678;2022-08-19T08:58:26;19.27;87.62
65374;SHT31;52070;53.760;9.678;2022-08-19T09:00:56;19.20;87.73
65374;SHT31;52070;53.760;9.678;2022-08-19T09:03:26;19.18;87.93
65374;SHT31;52070;53.760;9.678;2022-08-19T09:05:59;19.17;88.08
65374;SHT31;52070;53.760;9.678;2022-08-19T09:08:39;19.17;88.17
65374;SHT31;52070;53.760;9.678;2022-08-19T09:11:25;19.17;88.30
65374;SHT31;52070;53.760;9.678;2022-08-19T09:14:05;19.18;88.21
65374;SHT31;52070;53.760;9.678;2022-08-19T09:16:34;19.18;87.89
65374;SHT31;52070;53.760;9.678;2022-08-19T09:19:04;19.20;87.92
65374;SHT31;52070;53.760;9.678;2022-08-19T09:21:31;19.18;88.13
65374;SHT31;52070;53.760;9.678;2022-08-19T09:23:58;19.18;88.06
65374;SHT31;52070;53.760;9.678;2022-08-19T09:26:27;19.14;88.01
65374;SHT31;52070;53.760;9.678;2022-08-19T09:28:54;19.12;88.22
65374;SHT31;52070;53.760;9.678;2022-08-19T09:31:23;19.12;87.93
65374;SHT31;52070;53.760;9.678;2022-08-19T09:33:51;19.14;88.04
65374;SHT31;52070;53.760;9.678;2022-08-19T09:36:20;19.25;88.04
65374;SHT31;52070;53.760;9.678;2022-08-19T09:38:50;19.31;87.60
65374;SHT31;52070;53.760;9.678;2022-08-19T09:41:19;19.35;87.50
65374;SHT31;52070;53.760;9.678;2022-08-19T09:43:50;19.38;87.22
65374;SHT31;52070;53.760;9.678;2022-08-19T09:46:19;19.35;86.89
65374;SHT31;52070;53.760;9.678;2022-08-19T09:48:46;19.47;86.94
65374;SHT31;52070;53.760;9.678;2022-08-19T09:51:18;19.45;86.67
65374;SHT31;52070;53.760;9.678;2022-08-19T09:53:47;19.55;86.95
65374;SHT31;52070;53.760;9.678;2022-08-19T09:56:16;19.62;86.52
65374;SHT31;52070;53.760;9.678;2022-08-19T09:58:44;19.71;86.32
65374;SHT31;52070;53.760;9.678;2022-08-19T10:01:18;19.86;86.01
65374;SHT31;52070;53.760;9.678;2022-08-19T10:03:48;19.90;85.56
65374;SHT31;52070;53.760;9.678;2022-08-19T10:06:18;19.99;85.90
65374;SHT31;52070;53.760;9.678;2022-08-19T10:08:45;20.12;86.00
65374;SHT31;52070;53.760;9.678;2022-08-19T10:11:13;20.27;85.22
65374;SHT31;52070;53.760;9.678;2022-08-19T10:13:42;20.32;84.39
65374;SHT31;52070;53.760;9.678;2022-08-19T10:16:12;20.24;84.02
65374;SHT31;52070;53.760;9.678;2022-08-19T10:18:41;20.22;84.10
65374;SHT31;52070;53.760;9.678;2022-08-19T10:21:11;20.17;83.77
65374;SHT31;52070;53.760;9.678;2022-08-19T10:23:41;20.27;84.26
65374;SHT31;52070;53.760;9.678;2022-08-19T10:26:14;20.40;84.01
65374;SHT31;52070;53.760;9.678;2022-08-19T10:28:41;20.57;83.13
65374;SHT31;52070;53.760;9.678;2022-08-19T10:31:10;20.70;82.84
65374;SHT31;52070;53.760;9.678;2022-08-19T10:33:39;20.67;82.37
65374;SHT31;52070;53.760;9.678;2022-08-19T10:36:10;20.77;82.60
65374;SHT31;52070;53.760;9.678;2022-08-19T10:38:37;20.81;82.18
65374;SHT31;52070;53.760;9.678;2022-08-19T10:41:09;20.81;82.63
65374;SHT31;52070;53.760;9.678;2022-08-19T10:43:36;20.87;82.69
65374;SHT31;52070;53.760;9.678;2022-08-19T10:46:05;21.02;81.33
65374;SHT31;52070;53.760;9.678;2022-08-19T10:48:33;21.15;81.44
65374;SHT31;52070;53.760;9.678;2022-08-19T10:51:00;21.24;81.35
65374;SHT31;52070;53.760;9.678;2022-08-19T10:53:46;21.51;81.87
65374;SHT31;52070;53.760;9.678;2022-08-19T10:56:14;21.55;79.61
65374;SHT31;52070;53.760;9.678;2022-08-19T10:58:59;21.59;80.77
65374;SHT31;52070;53.760;9.678;2022-08-19T11:01:26;21.55;80.50
65374;SHT31;52070;53.760;9.678;2022-08-19T11:03:55;21.52;80.34
65374;SHT31;52070;53.760;9.678;2022-08-19T11:06:23;21.56;80.93
65374;SHT31;52070;53.760;9.678;2022-08-19T11:08:53;21.55;80.92
65374;SHT31;52070;53.760;9.678;2022-08-19T11:11:21;21.35;79.47
65374;SHT31;52070;53.760;9.678;2022-08-19T11:13:49;21.24;80.26
65374;SHT31;52070;53.760;9.678;2022-08-19T11:16:19;21.19;80.71
65374;SHT31;52070;53.760;9.678;2022-08-19T11:18:50;21.12;80.67
65374;SHT31;52070;53.760;9.678;2022-08-19T11:21:18;21.05;81.28
65374;SHT31;52070;53.760;9.678;2022-08-19T11:23:48;21.01;81.48
65374;SHT31;52070;53.760;9.678;2022-08-19T11:26:18;20.92;81.21
65374;SHT31;52070;53.760;9.678;2022-08-19T11:28:45;20.81;81.87
65374;SHT31;52070;53.760;9.678;2022-08-19T11:31:15;20.84;82.08
65374;SHT31;52070;53.760;9.678;2022-08-19T11:33:43;20.90;82.36
65374;SHT31;52070;53.760;9.678;2022-08-19T11:36:10;20.95;81.85
65374;SHT31;52070;53.760;9.678;2022-08-19T11:38:38;21.02;82.31
65374;SHT31;52070;53.760;9.678;2022-08-19T11:41:06;20.95;80.84
65374;SHT31;52070;53.760;9.678;2022-08-19T11:43:35;21.05;81.80
65374;SHT31;52070;53.760;9.678;2022-08-19T11:46:04;21.11;81.95
65374;SHT31;52070;53.760;9.678;2022-08-19T11:48:32;21.19;80.94
65374;SHT31;52070;53.760;9.678;2022-08-19T11:51:04;21.22;80.45
65374;SHT31;52070;53.760;9.678;2022-08-19T11:53:32;21.28;80.48
65374;SHT31;52070;53.760;9.678;2022-08-19T11:55:59;21.34;80.50
65374;SHT31;52070;53.760;9.678;2022-08-19T11:58:26;21.41;79.59
65374;SHT31;52070;53.760;9.678;2022-08-19T12:00:56;21.66;80.08
65374;SHT31;52070;53.760;9.678;2022-08-19T12:03:23;21.80;79.11
65374;SHT31;52070;53.760;9.678;2022-08-19T12:05:50;21.88;78.24
65374;SHT31;52070;53.760;9.678;2022-08-19T12:08:18;21.88;78.06
65374;SHT31;52070;53.760;9.678;2022-08-19T12:10:45;21.79;77.79
65374;SHT31;52070;53.760;9.678;2022-08-19T12:13:12;21.80;78.35
65374;SHT31;52070;53.760;9.678;2022-08-19T12:15:41;21.97;78.54
65374;SHT31;52070;53.760;9.678;2022-08-19T12:18:09;22.18;77.85
65374;SHT31;52070;53.760;9.678;2022-08-19T12:20:38;22.33;78.41
65374;SHT31;52070;53.760;9.678;2022-08-19T12:23:07;22.50;77.01
65374;SHT31;52070;53.760;9.678;2022-08-19T12:25:35;22.57;76.35
65374;SHT31;52070;53.760;9.678;2022-08-19T12:28:02;22.64;76.83
65374;SHT31;52070;53.760;9.678;2022-08-19T12:30:29;22.72;76.78
65374;SHT31;52070;53.760;9.678;2022-08-19T12:32:56;22.77;76.22
65374;SHT31;52070;53.760;9.678;2022-08-19T12:35:24;22.74;75.67
65374;SHT31;52070;53.760;9.678;2022-08-19T12:37:51;22.69;75.94
65374;SHT31;52070;53.760;9.678;2022-08-19T12:40:18;22.53;76.22
65374;SHT31;52070;53.760;9.678;2022-08-19T12:42:45;22.40;76.82
65374;SHT31;52070;53.760;9.678;2022-08-19T12:45:14;22.25;76.89
65374;SHT31;52070;53.760;9.678;2022-08-19T12:47:41;22.10;77.57
65374;SHT31;52070;53.760;9.678;2022-08-19T12:50:09;22.02;78.27
65374;SHT31;52070;53.760;9.678;2022-08-19T12:52:37;22.00;78.31
65374;SHT31;52070;53.760;9.678;2022-08-19T12:55:06;22.02;78.36
65374;SHT31;52070;53.760;9.678;2022-08-19T12:57:33;21.97;78.12
65374;SHT31;52070;53.760;9.678;2022-08-19T13:00:05;21.79;78.34
65374;SHT31;52070;53.760;9.678;2022-08-19T13:02:34;21.69;78.00
65374;SHT31;52070;53.760;9.678;2022-08-19T13:05:02;21.70;78.90
65374;SHT31;52070;53.760;9.678;2022-08-19T13:07:31;21.70;78.89
65374;SHT31;52070;53.760;9.678;2022-08-19T13:09:59;21.73;78.72
65374;SHT31;52070;53.760;9.678;2022-08-19T13:12:26;21.73;78.72
65374;SHT31;52070;53.760;9.678;2022-08-19T13:14:54;21.73;78.81
65374;SHT31;52070;53.760;9.678;2022-08-19T13:17:21;21.73;78.56
65374;SHT31;52070;53.760;9.678;2022-08-19T13:19:49;21.75;78.99
65374;SHT31;52070;53.760;9.678;2022-08-19T13:22:17;21.89;78.42
65374;SHT31;52070;53.760;9.678;2022-08-19T13:24:44;22.02;78.66
65374;SHT31;52070;53.760;9.678;2022-08-19T13:27:13;22.02;77.48
65374;SHT31;52070;53.760;9.678;2022-08-19T13:29:40;22.09;77.66
65374;SHT31;52070;53.760;9.678;2022-08-19T13:32:25;22.21;77.88
65374;SHT31;52070;53.760;9.678;2022-08-19T13:35:10;22.41;78.09
65374;SHT31;52070;53.760;9.678;2022-08-19T13:37:37;22.53;77.26
65374;SHT31;52070;53.760;9.678;2022-08-19T13:40:09;22.57;77.04
65374;SHT31;52070;53.760;9.678;2022-08-19T13:42:40;22.40;76.63
65374;SHT31;52070;53.760;9.678;2022-08-19T13:45:07;22.37;75.75
65374;SHT31;52070;53.760;9.678;2022-08-19T13:47:35;22.37;76.19
65374;SHT31;52070;53.760;9.678;2022-08-19T13:50:09;22.44;76.38
65374;SHT31;52070;53.760;9.678;2022-08-19T13:52:37;22.44;76.36
65374;SHT31;52070;53.760;9.678;2022-08-19T13:55:05;22.50;76.69
65374;SHT31;52070;53.760;9.678;2022-08-19T13:57:33;22.33;75.70
65374;SHT31;52070;53.760;9.678;2022-08-19T14:00:03;22.34;76.23
65374;SHT31;52070;53.760;9.678;2022-08-19T14:02:30;22.36;76.55
65374;SHT31;52070;53.760;9.678;2022-08-19T14:04:58;22.34;75.95
65374;SHT31;52070;53.760;9.678;2022-08-19T14:07:25;22.32;76.04
65374;SHT31;52070;53.760;9.678;2022-08-19T14:09:51;22.30;76.27
65374;SHT31;52070;53.760;9.678;2022-08-19T14:12:19;22.25;75.84
65374;SHT31;52070;53.760;9.678;2022-08-19T14:14:47;22.32;76.48
65374;SHT31;52070;53.760;9.678;2022-08-19T14:17:15;22.34;76.00
65374;SHT31;52070;53.760;9.678;2022-08-19T14:19:43;22.45;76.20
65374;SHT31;52070;53.760;9.678;2022-08-19T14:22:10;22.44;73.40
65374;SHT31;52070;53.760;9.678;2022-08-19T14:24:37;22.53;74.17
65374;SHT31;52070;53.760;9.678;2022-08-19T14:27:05;22.67;73.51
65374;SHT31;52070;53.760;9.678;2022-08-19T14:29:32;22.79;73.20
65374;SHT31;52070;53.760;9.678;2022-08-19T14:32:00;22.98;73.34
65374;SHT31;52070;53.760;9.678;2022-08-19T14:34:28;23.15;73.39
65374;SHT31;52070;53.760;9.678;2022-08-19T14:36:57;23.33;73.31
65374;SHT31;52070;53.760;9.678;2022-08-19T14:39:24;23.36;73.47
65374;SHT31;52070;53.760;9.678;2022-08-19T14:41:51;23.41;72.70
65374;SHT31;52070;53.760;9.678;2022-08-19T14:44:18;23.42;72.55
65374;SHT31;52070;53.760;9.678;2022-08-19T14:46:45;23.18;72.45
65374;SHT31;52070;53.760;9.678;2022-08-19T14:49:12;22.94;72.73
65374;SHT31;52070;53.760;9.678;2022-08-19T14:51:40;22.92;73.67
65374;SHT31;52070;53.760;9.678;2022-08-19T14:54:07;22.87;73.60
65374;SHT31;52070;53.760;9.678;2022-08-19T14:56:34;22.92;74.20
65374;SHT31;52070;53.760;9.678;2022-08-19T14:59:01;22.94;74.23
65374;SHT31;52070;53.760;9.678;2022-08-19T15:01:28;22.94;73.39
65374;SHT31;52070;53.760;9.678;2022-08-19T15:03:55;22.91;73.60
65374;SHT31;52070;53.760;9.678;2022-08-19T15:06:23;22.84;73.61
65374;SHT31;52070;53.760;9.678;2022-08-19T15:08:51;22.74;72.36
65374;SHT31;52070;53.760;9.678;2022-08-19T15:11:21;22.65;73.72
65374;SHT31;52070;53.760;9.678;2022-08-19T15:13:48;22.53;73.06
65374;SHT31;52070;53.760;9.678;2022-08-19T15:16:19;22.41;73.41
65374;SHT31;52070;53.760;9.678;2022-08-19T15:18:49;22.39;73.46
65374;SHT31;52070;53.760;9.678;2022-08-19T15:21:17;22.45;74.21
65374;SHT31;52070;53.760;9.678;2022-08-19T15:23:44;22.60;74.54
65374;SHT31;52070;53.760;9.678;2022-08-19T15:26:13;22.75;74.77
65374;SHT31;52070;53.760;9.678;2022-08-19T15:28:40;22.94;73.06
65374;SHT31;52070;53.760;9.678;2022-08-19T15:31:08;23.01;72.96
65374;SHT31;52070;53.760;9.678;2022-08-19T15:33:35;23.11;72.82
65374;SHT31;52070;53.760;9.678;2022-08-19T15:36:03;23.08;72.22
65374;SHT31;52070;53.760;9.678;2022-08-19T15:38:32;23.08;72.48
65374;SHT31;52070;53.760;9.678;2022-08-19T15:41:00;23.07;72.73